sensor_id;sensor_type;location;lat;lon;timestamp;P1;durP1;ratioP1;P2;durP2;ratioP2
70416;SDS011;57839;51.332;12.410;2023-01-26T00:00:50;38.72;;;24.52;;
70416;SDS011;57839;51.332;12.410;2023-01-26T00:03:16;39.30;;;24.33;;
70416;SDS011;57839;51.332;12.410;2023-01-26T00:05:42;40.20;;;25.88;;
70416;SDS011;57839;51.332;12.410;2023-01-26T00:08:08;37.10;;;24.90;;
70416;SDS011;57839;51.332;12.410;2023-01-26T00:10:34;40.88;;;25.65;;
70416;SDS011;57839;51.332;12.410;2023-01-26T00:13:01;43.08;;;26.83;;
70416;SDS011;57839;51.332;12.410;2023-01-26T00:15:27;41.10;;;25.95;;
70416;SDS011;57839;51.332;12.410;2023-01-26T00:17:53;38.72;;;25.77;;
70416;SDS011;57839;51.332;12.410;2023-01-26T00:20:18;39.38;;;24.30;;
70416;SDS011;57839;51.332;12.410;2023-01-26T00:22:44;42.05;;;25.63;;
70416;SDS011;57839;51.332;12.410;2023-01-26T00:25:09;38.22;;;24.42;;
70416;SDS011;57839;51.332;12.410;2023-01-26T00:27:35;39.75;;;23.85;;
70416;SDS011;57839;51.332;12.410;2023-01-26T00:30:00;37.58;;;23.25;;
70416;SDS011;57839;51.332;12.410;2023-01-26T00:32:26;42.22;;;25.15;;
70416;SDS011;57839;51.332;12.410;2023-01-26T00:34:52;37.90;;;24.70;;
70416;SDS011;57839;51.332;12.410;2023-01-26T00:37:17;39.55;;;24.98;;
70416;SDS011;57839;51.332;12.410;2023-01-26T00:39:43;40.85;;;25.02;;
70416;SDS011;57839;51.332;12.410;2023-01-26T00:42:10;38.05;;;24.02;;
70416;SDS011;57839;51.332;12.410;2023-01-26T00:44:38;43.13;;;26.08;;
70416;SDS011;57839;51.332;12.410;2023-01-26T00:47:05;38.20;;;24.48;;
70416;SDS011;57839;51.332;12.410;2023-01-26T00:49:31;39.22;;;24.95;;
70416;SDS011;57839;51.332;12.410;2023-01-26T00:51:56;43.75;;;27.10;;
70416;SDS011;57839;51.332;12.410;2023-01-26T00:54:22;41.67;;;25.20;;
70416;SDS011;57839;51.332;12.410;2023-01-26T00:56:47;40.55;;;24.23;;
70416;SDS011;57839;51.332;12.410;2023-01-26T00:59:13;34.60;;;23.33;;
70416;SDS011;57839;51.332;12.410;2023-01-26T01:01:38;40.83;;;25.05;;
70416;SDS011;57839;51.332;12.410;2023-01-26T01:04:04;42.42;;;25.17;;
70416;SDS011;57839;51.332;12.410;2023-01-26T01:06:30;41.88;;;25.70;;
70416;SDS011;57839;51.332;12.410;2023-01-26T01:08:55;49.28;;;28.45;;
70416;SDS011;57839;51.332;12.410;2023-01-26T01:11:20;45.33;;;27.17;;
70416;SDS011;57839;51.332;12.410;2023-01-26T01:13:46;47.78;;;27.42;;
70416;SDS011;57839;51.332;12.410;2023-01-26T01:16:12;48.42;;;27.98;;
70416;SDS011;57839;51.332;12.410;2023-01-26T01:18:39;47.78;;;27.92;;
70416;SDS011;57839;51.332;12.410;2023-01-26T01:21:09;49.47;;;28.50;;
70416;SDS011;57839;51.332;12.410;2023-01-26T01:23:35;51.25;;;29.33;;
70416;SDS011;57839;51.332;12.410;2023-01-26T01:26:01;52.13;;;28.23;;
70416;SDS011;57839;51.332;12.410;2023-01-26T01:28:28;56.58;;;29.05;;
70416;SDS011;57839;51.332;12.410;2023-01-26T01:30:54;54.95;;;29.27;;
70416;SDS011;57839;51.332;12.410;2023-01-26T01:33:20;56.15;;;29.42;;
70416;SDS011;57839;51.332;12.410;2023-01-26T01:35:59;53.30;;;28.73;;
70416;SDS011;57839;51.332;12.410;2023-01-26T01:38:27;48.97;;;26.42;;
70416;SDS011;57839;51.332;12.410;2023-01-26T01:40:53;50.97;;;26.80;;
70416;SDS011;57839;51.332;12.410;2023-01-26T01:43:19;48.92;;;26.50;;
70416;SDS011;57839;51.332;12.410;2023-01-26T01:45:46;49.50;;;26.55;;
70416;SDS011;57839;51.332;12.410;2023-01-26T01:48:14;43.22;;;23.75;;
70416;SDS011;57839;51.332;12.410;2023-01-26T01:50:43;52.90;;;27.80;;
70416;SDS011;57839;51.332;12.410;2023-01-26T01:53:10;51.67;;;27.38;;
70416;SDS011;57839;51.332;12.410;2023-01-26T01:55:38;54.88;;;27.73;;
70416;SDS011;57839;51.332;12.410;2023-01-26T01:58:05;55.65;;;28.02;;
70416;SDS011;57839;51.332;12.410;2023-01-26T02:00:31;55.63;;;29.02;;
70416;SDS011;57839;51.332;12.410;2023-01-26T02:02:58;50.90;;;27.05;;
70416;SDS011;57839;51.332;12.410;2023-01-26T02:05:55;50.03;;;27.05;;
70416;SDS011;57839;51.332;12.410;2023-01-26T02:08:28;51.40;;;26.88;;
70416;SDS011;57839;51.332;12.410;2023-01-26T02:10:57;51.00;;;26.85;;
70416;SDS011;57839;51.332;12.410;2023-01-26T02:13:24;50.58;;;26.45;;
70416;SDS011;57839;51.332;12.410;2023-01-26T02:15:50;54.67;;;26.52;;
70416;SDS011;57839;51.332;12.410;2023-01-26T02:18:16;51.10;;;26.23;;
70416;SDS011;57839;51.332;12.410;2023-01-26T02:20:47;52.45;;;25.42;;
70416;SDS011;57839;51.332;12.410;2023-01-26T02:23:33;55.47;;;27.17;;
70416;SDS011;57839;51.332;12.410;2023-01-26T02:28:30;52.83;;;26.60;;
70416;SDS011;57839;51.332;12.410;2023-01-26T02:30:56;51.20;;;25.63;;
70416;SDS011;57839;51.332;12.410;2023-01-26T02:33:23;56.85;;;27.23;;
70416;SDS011;57839;51.332;12.410;2023-01-26T02:35:52;49.85;;;27.08;;
70416;SDS011;57839;51.332;12.410;2023-01-26T02:38:18;50.13;;;25.95;;
70416;SDS011;57839;51.332;12.410;2023-01-26T02:40:48;56.45;;;27.70;;
70416;SDS011;57839;51.332;12.410;2023-01-26T02:43:15;56.40;;;29.52;;
70416;SDS011;57839;51.332;12.410;2023-01-26T02:45:41;56.08;;;28.45;;
70416;SDS011;57839;51.332;12.410;2023-01-26T02:48:07;61.58;;;30.08;;
70416;SDS011;57839;51.332;12.410;2023-01-26T02:50:33;55.38;;;27.70;;
70416;SDS011;57839;51.332;12.410;2023-01-26T02:52:59;53.53;;;27.02;;
70416;SDS011;57839;51.332;12.410;2023-01-26T02:55:25;52.58;;;26.70;;
70416;SDS011;57839;51.332;12.410;2023-01-26T02:57:58;44.60;;;24.52;;
70416;SDS011;57839;51.332;12.410;2023-01-26T03:00:26;50.03;;;25.15;;
70416;SDS011;57839;51.332;12.410;2023-01-26T03:02:54;50.58;;;27.63;;
70416;SDS011;57839;51.332;12.410;2023-01-26T03:05:21;49.55;;;26.40;;
70416;SDS011;57839;51.332;12.410;2023-01-26T03:07:47;51.45;;;26.42;;
70416;SDS011;57839;51.332;12.410;2023-01-26T03:10:13;45.90;;;25.27;;
70416;SDS011;57839;51.332;12.410;2023-01-26T03:12:40;48.85;;;24.48;;
70416;SDS011;57839;51.332;12.410;2023-01-26T03:15:05;49.40;;;24.75;;
70416;SDS011;57839;51.332;12.410;2023-01-26T03:21:03;48.50;;;26.15;;
70416;SDS011;57839;51.332;12.410;2023-01-26T03:23:49;44.20;;;24.45;;
70416;SDS011;57839;51.332;12.410;2023-01-26T03:26:33;49.28;;;25.83;;
70416;SDS011;57839;51.332;12.410;2023-01-26T03:29:17;44.92;;;24.00;;
70416;SDS011;57839;51.332;12.410;2023-01-26T03:31:43;44.03;;;22.98;;
70416;SDS011;57839;51.332;12.410;2023-01-26T03:34:08;45.38;;;23.65;;
70416;SDS011;57839;51.332;12.410;2023-01-26T03:36:34;41.75;;;22.83;;
70416;SDS011;57839;51.332;12.410;2023-01-26T03:39:01;43.80;;;23.40;;
70416;SDS011;57839;51.332;12.410;2023-01-26T03:41:26;46.95;;;24.45;;
70416;SDS011;57839;51.332;12.410;2023-01-26T03:44:10;73.57;;;37.42;;
70416;SDS011;57839;51.332;12.410;2023-01-26T03:46:54;42.72;;;23.30;;
70416;SDS011;57839;51.332;12.410;2023-01-26T03:49:38;36.10;;;20.55;;
70416;SDS011;57839;51.332;12.410;2023-01-26T03:52:22;41.83;;;22.05;;
70416;SDS011;57839;51.332;12.410;2023-01-26T03:55:06;35.97;;;19.20;;
70416;SDS011;57839;51.332;12.410;2023-01-26T03:57:51;31.10;;;16.15;;
70416;SDS011;57839;51.332;12.410;2023-01-26T04:00:16;31.95;;;16.15;;
70416;SDS011;57839;51.332;12.410;2023-01-26T04:02:42;28.65;;;15.30;;
70416;SDS011;57839;51.332;12.410;2023-01-26T04:08:10;62.67;;;33.92;;
70416;SDS011;57839;51.332;12.410;2023-01-26T04:10:44;32.00;;;18.05;;
70416;SDS011;57839;51.332;12.410;2023-01-26T04:13:10;29.15;;;15.30;;
70416;SDS011;57839;51.332;12.410;2023-01-26T04:15:54;30.45;;;15.20;;
70416;SDS011;57839;51.332;12.410;2023-01-26T04:21:22;29.98;;;14.52;;
70416;SDS011;57839;51.332;12.410;2023-01-26T04:24:01;81.07;;;41.60;;
70416;SDS011;57839;51.332;12.410;2023-01-26T04:26:33;39.35;;;20.50;;
70416;SDS011;57839;51.332;12.410;2023-01-26T04:29:05;26.80;;;14.70;;
70416;SDS011;57839;51.332;12.410;2023-01-26T04:31:32;24.75;;;13.77;;
70416;SDS011;57839;51.332;12.410;2023-01-26T04:34:01;27.10;;;14.52;;
70416;SDS011;57839;51.332;12.410;2023-01-26T04:36:28;26.40;;;13.77;;
70416;SDS011;57839;51.332;12.410;2023-01-26T04:38:54;30.73;;;15.55;;
70416;SDS011;57839;51.332;12.410;2023-01-26T04:41:19;29.25;;;14.55;;
70416;SDS011;57839;51.332;12.410;2023-01-26T04:43:45;54.92;;;29.52;;
70416;SDS011;57839;51.332;12.410;2023-01-26T04:46:11;42.28;;;21.58;;
70416;SDS011;57839;51.332;12.410;2023-01-26T04:48:36;30.33;;;15.82;;
70416;SDS011;57839;51.332;12.410;2023-01-26T04:51:03;27.38;;;14.57;;
70416;SDS011;57839;51.332;12.410;2023-01-26T04:53:30;31.00;;;15.43;;
70416;SDS011;57839;51.332;12.410;2023-01-26T04:55:57;29.17;;;14.60;;
70416;SDS011;57839;51.332;12.410;2023-01-26T04:58:22;32.10;;;16.45;;
70416;SDS011;57839;51.332;12.410;2023-01-26T05:00:51;29.50;;;14.73;;
70416;SDS011;57839;51.332;12.410;2023-01-26T05:03:17;27.05;;;13.68;;
70416;SDS011;57839;51.332;12.410;2023-01-26T05:05:43;27.02;;;14.30;;
70416;SDS011;57839;51.332;12.410;2023-01-26T05:08:08;27.58;;;14.32;;
70416;SDS011;57839;51.332;12.410;2023-01-26T05:10:34;26.33;;;14.15;;
70416;SDS011;57839;51.332;12.410;2023-01-26T05:12:59;29.23;;;15.88;;
70416;SDS011;57839;51.332;12.410;2023-01-26T05:15:25;28.08;;;14.45;;
70416;SDS011;57839;51.332;12.410;2023-01-26T05:17:50;26.20;;;14.50;;
70416;SDS011;57839;51.332;12.410;2023-01-26T05:20:16;24.42;;;14.25;;
70416;SDS011;57839;51.332;12.410;2023-01-26T05:22:42;26.38;;;14.35;;
70416;SDS011;57839;51.332;12.410;2023-01-26T05:25:08;26.77;;;13.38;;
70416;SDS011;57839;51.332;12.410;2023-01-26T05:27:33;28.55;;;14.35;;
70416;SDS011;57839;51.332;12.410;2023-01-26T05:29:59;26.23;;;13.63;;
70416;SDS011;57839;51.332;12.410;2023-01-26T05:32:25;26.83;;;14.63;;
70416;SDS011;57839;51.332;12.410;2023-01-26T05:34:52;25.23;;;13.63;;
70416;SDS011;57839;51.332;12.410;2023-01-26T05:37:17;25.50;;;13.75;;
70416;SDS011;57839;51.332;12.410;2023-01-26T05:39:43;26.23;;;13.45;;
70416;SDS011;57839;51.332;12.410;2023-01-26T05:42:11;29.45;;;14.82;;
70416;SDS011;57839;51.332;12.410;2023-01-26T05:44:37;30.98;;;15.35;;
70416;SDS011;57839;51.332;12.410;2023-01-26T05:47:03;27.33;;;14.20;;
70416;SDS011;57839;51.332;12.410;2023-01-26T05:49:29;29.50;;;14.50;;
70416;SDS011;57839;51.332;12.410;2023-01-26T05:51:54;27.10;;;14.38;;
70416;SDS011;57839;51.332;12.410;2023-01-26T05:54:20;27.85;;;14.95;;
70416;SDS011;57839;51.332;12.410;2023-01-26T05:56:46;28.88;;;14.98;;
70416;SDS011;57839;51.332;12.410;2023-01-26T05:59:11;24.55;;;13.25;;
70416;SDS011;57839;51.332;12.410;2023-01-26T06:01:37;27.67;;;14.32;;
70416;SDS011;57839;51.332;12.410;2023-01-26T06:04:03;26.52;;;13.85;;
70416;SDS011;57839;51.332;12.410;2023-01-26T06:06:29;26.60;;;14.30;;
70416;SDS011;57839;51.332;12.410;2023-01-26T06:08:55;25.38;;;15.05;;
70416;SDS011;57839;51.332;12.410;2023-01-26T06:11:21;33.58;;;18.08;;
70416;SDS011;57839;51.332;12.410;2023-01-26T06:13:46;31.77;;;15.68;;
70416;SDS011;57839;51.332;12.410;2023-01-26T06:16:12;26.75;;;15.45;;
70416;SDS011;57839;51.332;12.410;2023-01-26T06:18:38;24.42;;;14.38;;
70416;SDS011;57839;51.332;12.410;2023-01-26T06:21:03;26.65;;;14.50;;
70416;SDS011;57839;51.332;12.410;2023-01-26T06:23:29;26.33;;;13.45;;
70416;SDS011;57839;51.332;12.410;2023-01-26T06:26:00;24.02;;;13.77;;
70416;SDS011;57839;51.332;12.410;2023-01-26T06:28:27;28.23;;;15.40;;
70416;SDS011;57839;51.332;12.410;2023-01-26T06:31:04;23.05;;;13.00;;
70416;SDS011;57839;51.332;12.410;2023-01-26T06:33:31;23.58;;;13.55;;
70416;SDS011;57839;51.332;12.410;2023-01-26T06:36:32;20.35;;;12.65;;
70416;SDS011;57839;51.332;12.410;2023-01-26T06:38:52;25.43;;;13.90;;
70416;SDS011;57839;51.332;12.410;2023-01-26T06:41:18;25.98;;;14.15;;
70416;SDS011;57839;51.332;12.410;2023-01-26T06:43:44;24.60;;;13.50;;
70416;SDS011;57839;51.332;12.410;2023-01-26T06:46:11;23.00;;;13.40;;
70416;SDS011;57839;51.332;12.410;2023-01-26T06:48:37;24.05;;;13.88;;
70416;SDS011;57839;51.332;12.410;2023-01-26T06:53:52;25.88;;;14.98;;
70416;SDS011;57839;51.332;12.410;2023-01-26T06:56:19;23.15;;;13.52;;
70416;SDS011;57839;51.332;12.410;2023-01-26T06:58:45;25.08;;;13.63;;
70416;SDS011;57839;51.332;12.410;2023-01-26T07:01:14;22.45;;;13.63;;
70416;SDS011;57839;51.332;12.410;2023-01-26T07:06:11;23.92;;;14.15;;
70416;SDS011;57839;51.332;12.410;2023-01-26T07:08:37;22.65;;;12.90;;
70416;SDS011;57839;51.332;12.410;2023-01-26T07:11:03;24.25;;;13.35;;
70416;SDS011;57839;51.332;12.410;2023-01-26T07:13:29;27.13;;;14.38;;
70416;SDS011;57839;51.332;12.410;2023-01-26T07:16:02;24.13;;;14.23;;
70416;SDS011;57839;51.332;12.410;2023-01-26T07:18:29;27.58;;;14.75;;
70416;SDS011;57839;51.332;12.410;2023-01-26T07:21:04;23.58;;;13.10;;
70416;SDS011;57839;51.332;12.410;2023-01-26T07:23:31;24.08;;;12.77;;
70416;SDS011;57839;51.332;12.410;2023-01-26T07:25:57;25.30;;;13.88;;
70416;SDS011;57839;51.332;12.410;2023-01-26T07:28:23;23.90;;;13.85;;
70416;SDS011;57839;51.332;12.410;2023-01-26T07:30:50;21.77;;;12.88;;
70416;SDS011;57839;51.332;12.410;2023-01-26T07:33:16;24.00;;;12.82;;
70416;SDS011;57839;51.332;12.410;2023-01-26T07:35:41;23.45;;;13.52;;
70416;SDS011;57839;51.332;12.410;2023-01-26T07:38:07;21.42;;;12.50;;
70416;SDS011;57839;51.332;12.410;2023-01-26T07:40:32;20.85;;;11.95;;
70416;SDS011;57839;51.332;12.410;2023-01-26T07:42:58;19.90;;;12.18;;
70416;SDS011;57839;51.332;12.410;2023-01-26T07:45:24;21.00;;;11.50;;
70416;SDS011;57839;51.332;12.410;2023-01-26T07:47:52;23.05;;;13.30;;
70416;SDS011;57839;51.332;12.410;2023-01-26T07:50:18;23.70;;;13.95;;
70416;SDS011;57839;51.332;12.410;2023-01-26T07:52:45;20.05;;;12.15;;
70416;SDS011;57839;51.332;12.410;2023-01-26T07:55:16;23.85;;;12.50;;
70416;SDS011;57839;51.332;12.410;2023-01-26T07:57:46;21.73;;;12.70;;
70416;SDS011;57839;51.332;12.410;2023-01-26T08:00:13;21.83;;;12.77;;
70416;SDS011;57839;51.332;12.410;2023-01-26T08:02:39;21.15;;;13.07;;
70416;SDS011;57839;51.332;12.410;2023-01-26T08:05:05;20.58;;;12.15;;
70416;SDS011;57839;51.332;12.410;2023-01-26T08:07:30;20.63;;;12.43;;
70416;SDS011;57839;51.332;12.410;2023-01-26T08:09:56;20.58;;;12.82;;
70416;SDS011;57839;51.332;12.410;2023-01-26T08:12:23;20.98;;;12.27;;
70416;SDS011;57839;51.332;12.410;2023-01-26T08:14:49;20.17;;;12.32;;
70416;SDS011;57839;51.332;12.410;2023-01-26T08:17:14;20.33;;;12.73;;
70416;SDS011;57839;51.332;12.410;2023-01-26T08:19:41;20.80;;;11.63;;
70416;SDS011;57839;51.332;12.410;2023-01-26T08:22:07;20.50;;;11.68;;
70416;SDS011;57839;51.332;12.410;2023-01-26T08:24:33;17.77;;;11.52;;
70416;SDS011;57839;51.332;12.410;2023-01-26T08:26:58;16.25;;;10.55;;
70416;SDS011;57839;51.332;12.410;2023-01-26T08:29:24;18.58;;;11.85;;
70416;SDS011;57839;51.332;12.410;2023-01-26T08:31:49;20.52;;;10.73;;
70416;SDS011;57839;51.332;12.410;2023-01-26T08:34:15;18.13;;;10.93;;
70416;SDS011;57839;51.332;12.410;2023-01-26T08:36:40;18.23;;;10.85;;
70416;SDS011;57839;51.332;12.410;2023-01-26T08:39:06;19.15;;;11.73;;
70416;SDS011;57839;51.332;12.410;2023-01-26T08:41:31;20.00;;;12.68;;
70416;SDS011;57839;51.332;12.410;2023-01-26T08:43:57;16.65;;;11.30;;
70416;SDS011;57839;51.332;12.410;2023-01-26T08:46:23;18.83;;;11.05;;
70416;SDS011;57839;51.332;12.410;2023-01-26T08:48:50;19.48;;;11.98;;
70416;SDS011;57839;51.332;12.410;2023-01-26T08:51:15;21.02;;;13.75;;
70416;SDS011;57839;51.332;12.410;2023-01-26T08:53:41;21.15;;;13.18;;
70416;SDS011;57839;51.332;12.410;2023-01-26T08:56:07;23.52;;;14.43;;
70416;SDS011;57839;51.332;12.410;2023-01-26T08:58:34;22.10;;;14.30;;
70416;SDS011;57839;51.332;12.410;2023-01-26T09:01:06;22.10;;;13.80;;
70416;SDS011;57839;51.332;12.410;2023-01-26T09:03:34;22.38;;;13.65;;
70416;SDS011;57839;51.332;12.410;2023-01-26T09:06:00;21.33;;;13.18;;
70416;SDS011;57839;51.332;12.410;2023-01-26T09:08:26;20.83;;;12.82;;
70416;SDS011;57839;51.332;12.410;2023-01-26T09:10:52;22.85;;;13.82;;
70416;SDS011;57839;51.332;12.410;2023-01-26T09:13:17;24.95;;;14.85;;
70416;SDS011;57839;51.332;12.410;2023-01-26T09:15:43;22.55;;;13.73;;
70416;SDS011;57839;51.332;12.410;2023-01-26T09:18:13;24.63;;;14.82;;
70416;SDS011;57839;51.332;12.410;2023-01-26T09:20:38;23.63;;;14.35;;
70416;SDS011;57839;51.332;12.410;2023-01-26T09:23:04;20.67;;;13.90;;
70416;SDS011;57839;51.332;12.410;2023-01-26T09:25:29;21.73;;;14.88;;
70416;SDS011;57839;51.332;12.410;2023-01-26T09:27:55;22.20;;;14.30;;
70416;SDS011;57839;51.332;12.410;2023-01-26T09:30:23;24.45;;;15.73;;
70416;SDS011;57839;51.332;12.410;2023-01-26T09:32:49;27.42;;;16.67;;
70416;SDS011;57839;51.332;12.410;2023-01-26T09:35:15;27.73;;;17.23;;
70416;SDS011;57839;51.332;12.410;2023-01-26T09:37:43;23.63;;;14.95;;
70416;SDS011;57839;51.332;12.410;2023-01-26T09:40:25;24.35;;;15.63;;
70416;SDS011;57839;51.332;12.410;2023-01-26T09:48:53;23.05;;;14.77;;
70416;SDS011;57839;51.332;12.410;2023-01-26T09:51:43;26.52;;;16.83;;
70416;SDS011;57839;51.332;12.410;2023-01-26T09:56:51;26.00;;;15.13;;
70416;SDS011;57839;51.332;12.410;2023-01-26T10:02:04;26.38;;;15.93;;
70416;SDS011;57839;51.332;12.410;2023-01-26T10:05:00;23.00;;;13.90;;
70416;SDS011;57839;51.332;12.410;2023-01-26T10:07:29;26.30;;;15.15;;
70416;SDS011;57839;51.332;12.410;2023-01-26T10:09:54;25.80;;;15.27;;
70416;SDS011;57839;51.332;12.410;2023-01-26T10:12:30;26.02;;;15.25;;
70416;SDS011;57839;51.332;12.410;2023-01-26T10:17:37;23.42;;;14.02;;
70416;SDS011;57839;51.332;12.410;2023-01-26T10:20:08;22.05;;;13.65;;
70416;SDS011;57839;51.332;12.410;2023-01-26T10:22:47;21.92;;;13.07;;
70416;SDS011;57839;51.332;12.410;2023-01-26T10:25:17;23.38;;;13.35;;
70416;SDS011;57839;51.332;12.410;2023-01-26T10:28:13;22.77;;;13.82;;
70416;SDS011;57839;51.332;12.410;2023-01-26T10:30:43;17.83;;;11.90;;
70416;SDS011;57839;51.332;12.410;2023-01-26T10:33:13;18.58;;;11.02;;
70416;SDS011;57839;51.332;12.410;2023-01-26T10:35:44;19.63;;;11.45;;
70416;SDS011;57839;51.332;12.410;2023-01-26T10:38:25;19.50;;;12.35;;
70416;SDS011;57839;51.332;12.410;2023-01-26T10:40:52;20.08;;;12.07;;
70416;SDS011;57839;51.332;12.410;2023-01-26T10:43:18;20.70;;;12.30;;
70416;SDS011;57839;51.332;12.410;2023-01-26T10:45:45;20.83;;;12.20;;
70416;SDS011;57839;51.332;12.410;2023-01-26T10:48:18;19.55;;;12.23;;
70416;SDS011;57839;51.332;12.410;2023-01-26T10:50:45;22.15;;;13.10;;
70416;SDS011;57839;51.332;12.410;2023-01-26T10:53:30;22.20;;;12.32;;
70416;SDS011;57839;51.332;12.410;2023-01-26T10:56:05;16.52;;;10.95;;
70416;SDS011;57839;51.332;12.410;2023-01-26T11:01:08;20.17;;;10.88;;
70416;SDS011;57839;51.332;12.410;2023-01-26T11:03:39;16.48;;;11.18;;
70416;SDS011;57839;51.332;12.410;2023-01-26T11:06:15;19.27;;;12.32;;
70416;SDS011;57839;51.332;12.410;2023-01-26T11:08:42;16.00;;;10.32;;
70416;SDS011;57839;51.332;12.410;2023-01-26T11:11:24;16.95;;;11.43;;
70416;SDS011;57839;51.332;12.410;2023-01-26T11:14:36;19.45;;;11.25;;
70416;SDS011;57839;51.332;12.410;2023-01-26T11:16:42;22.58;;;12.98;;
70416;SDS011;57839;51.332;12.410;2023-01-26T11:22:06;16.92;;;10.68;;
70416;SDS011;57839;51.332;12.410;2023-01-26T11:24:57;17.27;;;9.80;;
70416;SDS011;57839;51.332;12.410;2023-01-26T11:30:41;20.17;;;10.82;;
70416;SDS011;57839;51.332;12.410;2023-01-26T11:33:29;15.95;;;10.65;;
70416;SDS011;57839;51.332;12.410;2023-01-26T11:36:14;18.50;;;11.25;;
70416;SDS011;57839;51.332;12.410;2023-01-26T11:39:10;18.33;;;11.18;;
70416;SDS011;57839;51.332;12.410;2023-01-26T11:47:51;22.13;;;13.52;;
70416;SDS011;57839;51.332;12.410;2023-01-26T11:50:34;23.10;;;13.15;;
70416;SDS011;57839;51.332;12.410;2023-01-26T12:01:33;25.63;;;14.25;;
70416;SDS011;57839;51.332;12.410;2023-01-26T12:04:02;29.30;;;15.00;;
70416;SDS011;57839;51.332;12.410;2023-01-26T12:06:34;27.10;;;15.40;;
70416;SDS011;57839;51.332;12.410;2023-01-26T12:11:56;25.05;;;15.07;;
70416;SDS011;57839;51.332;12.410;2023-01-26T12:14:41;25.00;;;14.60;;
70416;SDS011;57839;51.332;12.410;2023-01-26T12:17:16;24.75;;;14.68;;
70416;SDS011;57839;51.332;12.410;2023-01-26T12:19:53;27.33;;;15.32;;
70416;SDS011;57839;51.332;12.410;2023-01-26T12:27:45;40.20;;;21.92;;
70416;SDS011;57839;51.332;12.410;2023-01-26T12:30:21;36.60;;;19.67;;
70416;SDS011;57839;51.332;12.410;2023-01-26T12:32:51;33.97;;;19.38;;
70416;SDS011;57839;51.332;12.410;2023-01-26T12:35:33;58.10;;;32.45;;
70416;SDS011;57839;51.332;12.410;2023-01-26T12:38:08;51.55;;;27.92;;
70416;SDS011;57839;51.332;12.410;2023-01-26T12:40:51;37.15;;;20.00;;
70416;SDS011;57839;51.332;12.410;2023-01-26T12:46:23;38.80;;;19.83;;
70416;SDS011;57839;51.332;12.410;2023-01-26T12:48:50;34.05;;;18.98;;
70416;SDS011;57839;51.332;12.410;2023-01-26T12:51:22;36.58;;;20.15;;
70416;SDS011;57839;51.332;12.410;2023-01-26T12:56:41;37.03;;;20.85;;
70416;SDS011;57839;51.332;12.410;2023-01-26T12:59:14;37.75;;;20.77;;
70416;SDS011;57839;51.332;12.410;2023-01-26T13:01:45;38.17;;;21.98;;
70416;SDS011;57839;51.332;12.410;2023-01-26T13:04:12;39.38;;;21.23;;
70416;SDS011;57839;51.332;12.410;2023-01-26T13:06:39;37.55;;;21.95;;
70416;SDS011;57839;51.332;12.410;2023-01-26T13:09:21;43.03;;;23.40;;
70416;SDS011;57839;51.332;12.410;2023-01-26T13:14:25;45.22;;;24.50;;
70416;SDS011;57839;51.332;12.410;2023-01-26T13:17:03;48.10;;;25.48;;
70416;SDS011;57839;51.332;12.410;2023-01-26T13:27:30;47.25;;;25.63;;
70416;SDS011;57839;51.332;12.410;2023-01-26T13:29:58;47.55;;;25.73;;
70416;SDS011;57839;51.332;12.410;2023-01-26T13:34:56;44.80;;;23.90;;
70416;SDS011;57839;51.332;12.410;2023-01-26T13:40:32;40.00;;;21.80;;
70416;SDS011;57839;51.332;12.410;2023-01-26T13:43:07;44.55;;;22.50;;
70416;SDS011;57839;51.332;12.410;2023-01-26T13:45:39;50.53;;;25.58;;
70416;SDS011;57839;51.332;12.410;2023-01-26T13:48:13;50.55;;;26.38;;
70416;SDS011;57839;51.332;12.410;2023-01-26T13:50:40;51.83;;;27.52;;
70416;SDS011;57839;51.332;12.410;2023-01-26T13:53:23;49.03;;;25.13;;
70416;SDS011;57839;51.332;12.410;2023-01-26T13:55:57;45.67;;;25.50;;
70416;SDS011;57839;51.332;12.410;2023-01-26T13:58:24;51.95;;;26.83;;
70416;SDS011;57839;51.332;12.410;2023-01-26T14:03:45;51.28;;;24.42;;
70416;SDS011;57839;51.332;12.410;2023-01-26T14:06:17;46.17;;;24.75;;
70416;SDS011;57839;51.332;12.410;2023-01-26T14:08:47;49.45;;;25.85;;
70416;SDS011;57839;51.332;12.410;2023-01-26T14:11:16;52.42;;;24.80;;
70416;SDS011;57839;51.332;12.410;2023-01-26T14:13:44;47.30;;;23.63;;
70416;SDS011;57839;51.332;12.410;2023-01-26T14:21:44;47.25;;;24.38;;
70416;SDS011;57839;51.332;12.410;2023-01-26T14:24:11;45.72;;;23.38;;
70416;SDS011;57839;51.332;12.410;2023-01-26T14:26:36;48.08;;;23.90;;
70416;SDS011;57839;51.332;12.410;2023-01-26T14:29:02;48.30;;;23.63;;
70416;SDS011;57839;51.332;12.410;2023-01-26T14:31:28;45.67;;;23.60;;
70416;SDS011;57839;51.332;12.410;2023-01-26T14:33:54;48.92;;;22.45;;
70416;SDS011;57839;51.332;12.410;2023-01-26T14:36:26;44.30;;;21.30;;
70416;SDS011;57839;51.332;12.410;2023-01-26T14:38:54;46.10;;;21.63;;
70416;SDS011;57839;51.332;12.410;2023-01-26T14:43:49;41.13;;;22.20;;
70416;SDS011;57839;51.332;12.410;2023-01-26T14:46:17;36.42;;;19.90;;
70416;SDS011;57839;51.332;12.410;2023-01-26T14:48:47;39.70;;;21.02;;
70416;SDS011;57839;51.332;12.410;2023-01-26T14:51:33;40.13;;;20.10;;
70416;SDS011;57839;51.332;12.410;2023-01-26T14:54:04;36.33;;;18.67;;
70416;SDS011;57839;51.332;12.410;2023-01-26T14:56:39;58.15;;;29.50;;
70416;SDS011;57839;51.332;12.410;2023-01-26T14:59:05;40.05;;;20.33;;
70416;SDS011;57839;51.332;12.410;2023-01-26T15:01:32;38.17;;;20.45;;
70416;SDS011;57839;51.332;12.410;2023-01-26T15:04:00;38.97;;;20.05;;
70416;SDS011;57839;51.332;12.410;2023-01-26T15:06:28;38.95;;;20.42;;
70416;SDS011;57839;51.332;12.410;2023-01-26T15:09:02;38.30;;;20.80;;
70416;SDS011;57839;51.332;12.410;2023-01-26T15:11:33;39.25;;;21.02;;
70416;SDS011;57839;51.332;12.410;2023-01-26T15:14:32;35.15;;;19.95;;
70416;SDS011;57839;51.332;12.410;2023-01-26T15:17:02;37.95;;;19.35;;
70416;SDS011;57839;51.332;12.410;2023-01-26T15:19:37;36.55;;;19.40;;
70416;SDS011;57839;51.332;12.410;2023-01-26T15:22:15;37.42;;;19.10;;
70416;SDS011;57839;51.332;12.410;2023-01-26T15:24:43;34.85;;;18.42;;
70416;SDS011;57839;51.332;12.410;2023-01-26T15:27:10;34.47;;;18.75;;
70416;SDS011;57839;51.332;12.410;2023-01-26T15:29:36;33.60;;;17.90;;
70416;SDS011;57839;51.332;12.410;2023-01-26T15:32:02;31.67;;;17.40;;
70416;SDS011;57839;51.332;12.410;2023-01-26T15:37:01;36.55;;;20.65;;
70416;SDS011;57839;51.332;12.410;2023-01-26T15:39:47;32.67;;;18.05;;
70416;SDS011;57839;51.332;12.410;2023-01-26T15:42:14;30.83;;;17.70;;
70416;SDS011;57839;51.332;12.410;2023-01-26T15:44:40;31.52;;;18.20;;
70416;SDS011;57839;51.332;12.410;2023-01-26T15:47:09;29.13;;;16.98;;
70416;SDS011;57839;51.332;12.410;2023-01-26T15:49:36;26.27;;;16.30;;
70416;SDS011;57839;51.332;12.410;2023-01-26T15:52:02;29.38;;;16.98;;
70416;SDS011;57839;51.332;12.410;2023-01-26T15:54:34;28.65;;;16.15;;
70416;SDS011;57839;51.332;12.410;2023-01-26T15:56:59;26.42;;;15.20;;
70416;SDS011;57839;51.332;12.410;2023-01-26T15:59:25;28.33;;;17.33;;